createdAt,value
2022-08-23T00:02:56.515Z,6.27
2022-08-23T00:07:50.430Z,6.47
2022-08-23T00:12:43.620Z,6.10
2022-08-23T00:17:36.218Z,6.70
2022-08-23T00:22:28.784Z,7.27
2022-08-23T00:27:22.661Z,6.47
2022-08-23T00:32:16.839Z,6.97
2022-08-23T00:37:10.093Z,7.57
2022-08-23T00:42:27.225Z,6.80
2022-08-23T00:47:43.273Z,6.90
2022-08-23T00:52:41.600Z,7.00
2022-08-23T00:57:34.869Z,7.10
2022-08-23T01:02:29.104Z,7.70
2022-08-23T01:07:25.708Z,7.47
2022-08-23T01:12:32.735Z,6.83
2022-08-23T01:17:28.732Z,7.50
2022-08-23T01:22:23.831Z,7.57
2022-08-23T01:27:18.417Z,7.47
2022-08-23T01:32:13.416Z,7.20
2022-08-23T01:37:07.970Z,7.10
2022-08-23T01:42:00.661Z,7.40
2022-08-23T01:47:01.344Z,7.97
2022-08-23T01:51:55.220Z,7.67
2022-08-23T01:56:47.840Z,8.50
2022-08-23T02:01:40.803Z,8.10
2022-08-23T02:06:34.875Z,7.77
2022-08-23T02:11:29.743Z,8.07
2022-08-23T02:16:24.037Z,7.80
2022-08-23T02:21:17.626Z,8.03
2022-08-23T02:26:12.451Z,8.47
2022-08-23T02:31:06.294Z,8.00
2022-08-23T02:35:59.123Z,8.20
2022-08-23T02:41:00.935Z,8.50
2022-08-23T02:45:58.046Z,9.33
2022-08-23T02:50:50.910Z,9.60
2022-08-23T02:55:45.879Z,9.47
2022-08-23T03:00:39.057Z,9.43
2022-08-23T03:05:33.531Z,9.17
2022-08-23T03:10:27.248Z,8.50
2022-08-23T03:15:25.066Z,9.93
2022-08-23T03:20:17.726Z,8.20
2022-08-23T03:25:13.958Z,8.90
2022-08-23T03:30:28.279Z,9.53
2022-08-23T03:35:24.292Z,8.83
2022-08-23T03:40:18.288Z,8.50
2022-08-23T03:45:11.378Z,8.40
2022-08-23T03:50:04.253Z,8.60
2022-08-23T03:54:58.584Z,8.63
2022-08-23T03:59:55.217Z,8.40
2022-08-23T04:04:48.623Z,8.70
2022-08-23T04:09:55.649Z,9.10
2022-08-23T04:14:51.315Z,8.27
2022-08-23T04:19:45.719Z,8.67
2022-08-23T04:24:38.727Z,7.70
2022-08-23T04:29:34.199Z,8.60
2022-08-23T04:34:28.870Z,9.33
2022-08-23T04:39:23.146Z,8.50
2022-08-23T04:44:16.782Z,9.27
2022-08-23T04:49:10.664Z,8.70
2022-08-23T04:54:04.166Z,8.90
2022-08-23T04:59:13.187Z,9.13
2022-08-23T05:04:08.227Z,7.80
2022-08-23T05:09:03.088Z,8.20
2022-08-23T05:13:57.342Z,7.53
2022-08-23T05:18:51.436Z,7.60
2022-08-23T05:23:45.212Z,8.10
2022-08-23T05:28:47.840Z,7.37
2022-08-23T05:33:43.073Z,8.07
2022-08-23T05:38:37.476Z,7.60
2022-08-23T05:43:31.401Z,7.00
2022-08-23T05:48:25.510Z,6.10
2022-08-23T05:53:23.708Z,7.07
2022-08-23T05:58:18.109Z,6.83
2022-08-23T06:03:11.371Z,6.90
2022-08-23T06:08:04.408Z,6.30
2022-08-23T06:12:57.668Z,6.37
2022-08-23T06:17:51.620Z,6.33
2022-08-23T06:22:44.221Z,6.67
2022-08-23T06:27:36.946Z,6.60
2022-08-23T06:32:30.461Z,6.40
2022-08-23T06:37:43.033Z,6.17
2022-08-23T06:42:53.809Z,6.43
2022-08-23T06:47:51.389Z,6.40
2022-08-23T06:52:47.411Z,6.87
2022-08-23T06:57:49.825Z,6.40
2022-08-23T07:03:01.113Z,7.20
2022-08-23T07:08:13.826Z,6.60
2022-08-23T07:13:06.636Z,6.20
2022-08-23T07:17:59.377Z,6.40
2022-08-23T07:22:51.931Z,6.00
2022-08-23T07:27:45.978Z,6.30
2022-08-23T07:32:41.543Z,6.30
2022-08-23T07:37:46.753Z,6.40
2022-08-23T07:42:40.591Z,6.27
2022-08-23T07:47:35.048Z,6.23
2022-08-23T07:52:27.771Z,6.30
2022-08-23T07:57:20.951Z,6.10
2022-08-23T08:02:22.697Z,5.80
2022-08-23T08:07:20.493Z,5.90
2022-08-23T08:12:19.409Z,5.90
2022-08-23T08:17:14.974Z,5.67
2022-08-23T08:22:34.785Z,5.83
2022-08-23T08:27:55.124Z,5.37
2022-08-23T08:32:47.700Z,5.23
2022-08-23T08:37:42.727Z,5.90
2022-08-23T08:42:46.218Z,5.30
2022-08-23T08:47:44.243Z,5.60
2022-08-23T08:52:39.079Z,5.13
2022-08-23T08:57:42.968Z,4.80
2022-08-23T09:02:36.050Z,4.50
2022-08-23T09:07:34.205Z,5.00
2022-08-23T09:12:32.419Z,4.37
2022-08-23T09:17:32.185Z,4.47
2022-08-23T09:22:29.229Z,4.03
2022-08-23T09:27:22.188Z,4.17
2022-08-23T09:32:28.273Z,3.93
2022-08-23T09:37:22.471Z,4.00
2022-08-23T09:42:27.962Z,3.20
2022-08-23T09:47:20.548Z,4.10
2022-08-23T09:52:24.153Z,3.50
2022-08-23T09:57:26.257Z,3.63
2022-08-23T10:02:27.181Z,3.67
2022-08-23T10:07:28.734Z,3.50
2022-08-23T10:12:23.869Z,3.30
2022-08-23T10:17:24.572Z,3.60
2022-08-23T10:22:20.099Z,3.93
2022-08-23T10:27:52.412Z,3.57
2022-08-23T10:32:48.457Z,3.83
2022-08-23T10:37:51.327Z,4.03
2022-08-23T10:42:51.265Z,3.93
2022-08-23T10:47:52.280Z,4.00
2022-08-23T10:52:49.016Z,4.00
2022-08-23T10:57:43.493Z,3.80
2022-08-23T11:02:42.581Z,3.77
2022-08-23T11:07:56.586Z,4.33
2022-08-23T11:12:54.344Z,4.10
2022-08-23T11:17:57.472Z,4.03
2022-08-23T11:23:10.945Z,4.10
2022-08-23T11:28:18.562Z,4.17
2022-08-23T11:33:16.165Z,4.00
2022-08-23T11:38:10.644Z,4.20
2022-08-23T11:43:13.834Z,4.20
2022-08-23T11:48:12.984Z,4.00
2022-08-23T11:53:15.320Z,4.27
2022-08-23T11:58:31.436Z,4.13
2022-08-23T12:03:26.316Z,4.10
2022-08-23T12:08:32.842Z,4.67
2022-08-23T12:13:33.745Z,4.33
2022-08-23T12:18:26.443Z,4.50
2022-08-23T12:23:21.527Z,4.43
2022-08-23T12:28:32.076Z,3.90
2022-08-23T12:33:33.201Z,4.30
2022-08-23T12:38:32.288Z,4.70
2022-08-23T12:43:26.695Z,4.50
2022-08-23T12:48:23.015Z,4.40
2022-08-23T12:53:18.136Z,3.93
2022-08-23T12:58:11.389Z,4.47
2022-08-23T13:03:08.451Z,4.13
2022-08-23T13:08:03.635Z,4.20
2022-08-23T13:12:57.805Z,4.60
2022-08-23T13:18:00.244Z,4.60
2022-08-23T13:22:57.036Z,4.60
2022-08-23T13:27:52.036Z,4.17
2022-08-23T13:32:47.112Z,4.27
2022-08-23T13:37:45.938Z,4.30
2022-08-23T13:42:48.291Z,4.60
2022-08-23T13:47:49.112Z,4.50
2022-08-23T13:53:03.165Z,4.30
2022-08-23T13:57:54.985Z,4.17
2022-08-23T14:02:49.835Z,4.20
2022-08-23T14:07:42.439Z,4.40
2022-08-23T14:12:35.359Z,4.10
2022-08-23T14:17:28.575Z,4.30
2022-08-23T14:22:22.662Z,4.40
2022-08-23T14:27:15.449Z,4.33
2022-08-23T14:32:08.082Z,4.40
2022-08-23T14:42:15.862Z,4.30
2022-08-23T14:47:08.431Z,4.10
2022-08-23T14:52:01.054Z,4.33
2022-08-23T14:56:53.726Z,4.50
2022-08-23T15:01:48.312Z,4.23
2022-08-23T15:07:00.409Z,4.80
2022-08-23T15:17:08.911Z,4.50
2022-08-23T15:22:06.519Z,4.63
2022-08-23T15:27:14.428Z,4.10
2022-08-23T15:32:07.223Z,4.50
2022-08-23T15:37:04.088Z,4.60
2022-08-23T15:41:56.661Z,4.60
2022-08-23T15:46:50.026Z,4.60
2022-08-23T15:51:42.727Z,4.50
2022-08-23T15:56:38.262Z,4.20
2022-08-23T16:01:33.785Z,4.20
2022-08-23T16:06:26.465Z,4.60
2022-08-23T16:11:19.308Z,4.37
2022-08-23T16:16:16.511Z,4.60
2022-08-23T16:21:09.173Z,4.40
2022-08-23T16:26:01.737Z,4.33
2022-08-23T16:30:54.912Z,4.80
2022-08-23T16:35:48.891Z,4.37
2022-08-23T16:40:41.511Z,4.13
2022-08-23T16:50:44.244Z,4.30
2022-08-23T16:55:38.399Z,4.50
2022-08-23T17:00:31.448Z,4.20
2022-08-23T17:05:24.088Z,4.30
2022-08-23T17:10:17.488Z,4.53
2022-08-23T17:15:15.676Z,4.40
2022-08-23T17:20:14.626Z,4.60
2022-08-23T17:25:07.848Z,4.40
2022-08-23T17:30:00.885Z,4.30
2022-08-23T17:34:54.761Z,4.30
2022-08-23T17:39:48.461Z,4.63
2022-08-23T17:44:41.260Z,5.10
2022-08-23T17:49:33.865Z,4.37
2022-08-23T17:54:27.734Z,4.50
2022-08-23T17:59:20.396Z,4.50
2022-08-23T18:04:12.959Z,4.23
2022-08-23T18:09:06.356Z,4.20
2022-08-23T18:14:00.319Z,4.20
2022-08-23T18:18:52.899Z,4.63
2022-08-23T18:23:45.863Z,4.60
2022-08-23T18:28:38.402Z,5.47
2022-08-23T18:33:46.428Z,4.83
2022-08-23T18:38:39.972Z,4.90
2022-08-23T18:43:37.406Z,4.60
2022-08-23T18:48:31.720Z,5.40
2022-08-23T18:53:24.597Z,5.43
2022-08-23T18:58:17.415Z,5.20
2022-08-23T19:03:11.130Z,5.10
2022-08-23T19:08:05.472Z,5.00
2022-08-23T19:12:58.581Z,6.27
2022-08-23T19:17:52.845Z,6.10
2022-08-23T19:22:45.376Z,7.70
2022-08-23T19:27:39.266Z,7.47
2022-08-23T19:32:34.465Z,7.70
2022-08-23T19:37:27.135Z,7.70
2022-08-23T19:42:21.525Z,8.30
2022-08-23T19:47:19.751Z,7.27
2022-08-23T19:52:13.193Z,6.70
2022-08-23T19:57:08.358Z,7.20
2022-08-23T20:02:01.595Z,7.00
2022-08-23T20:06:55.708Z,7.00
2022-08-23T20:11:48.231Z,7.50
2022-08-23T20:16:42.035Z,7.17
2022-08-23T20:21:34.865Z,7.30
2022-08-23T20:26:29.936Z,6.20
2022-08-23T20:31:23.815Z,5.70
2022-08-23T20:36:16.503Z,5.90
2022-08-23T20:41:09.369Z,5.60
2022-08-23T20:46:07.358Z,5.40
2022-08-23T20:51:01.208Z,5.77
2022-08-23T20:55:53.978Z,5.30
2022-08-23T21:00:46.575Z,5.60
2022-08-23T21:05:40.522Z,4.93
2022-08-23T21:10:34.284Z,5.17
2022-08-23T21:15:26.815Z,5.37
2022-08-23T21:20:19.962Z,5.10
2022-08-23T21:25:13.847Z,5.13
2022-08-23T21:30:06.805Z,5.20
2022-08-23T21:34:59.640Z,4.70
2022-08-23T21:39:52.598Z,5.10
2022-08-23T21:44:46.753Z,4.70
2022-08-23T21:49:39.528Z,4.80
2022-08-23T21:54:32.058Z,4.57
2022-08-23T21:59:24.659Z,5.00
2022-08-23T22:04:18.762Z,4.43
2022-08-23T22:09:13.535Z,4.73
2022-08-23T22:14:06.068Z,4.70
2022-08-23T22:18:58.573Z,4.63
2022-08-23T22:23:52.710Z,4.87
2022-08-23T22:28:45.260Z,4.93
2022-08-23T22:33:37.778Z,4.43
2022-08-23T22:38:30.565Z,4.60
2022-08-23T22:43:24.433Z,4.90
2022-08-23T22:48:17.130Z,4.83
2022-08-23T22:53:09.732Z,4.80
2022-08-23T22:58:02.755Z,4.63
2022-08-23T23:02:56.949Z,4.60
2022-08-23T23:08:07.124Z,4.80
2022-08-23T23:12:59.636Z,4.50
2022-08-23T23:17:52.167Z,4.20
2022-08-23T23:22:46.080Z,4.53
2022-08-23T23:27:38.604Z,4.77
2022-08-23T23:32:31.095Z,4.80
2022-08-23T23:37:23.628Z,5.10
2022-08-23T23:42:17.521Z,4.77
2022-08-23T23:47:10.040Z,5.20
2022-08-23T23:52:03.230Z,7.03
2022-08-23T23:56:55.774Z,6.73
